createdAt,value
2022-07-30T00:00:57.172Z,14.50
2022-07-30T00:03:23.895Z,12.18
2022-07-30T00:05:50.661Z,13.10
2022-07-30T00:08:17.236Z,15.63
2022-07-30T00:10:43.929Z,11.55
2022-07-30T00:13:14.269Z,13.90
2022-07-30T00:15:41.072Z,13.65
2022-07-30T00:18:07.828Z,11.07
2022-07-30T00:20:34.486Z,14.80
2022-07-30T00:23:06.090Z,13.63
2022-07-30T00:25:35.239Z,10.02
2022-07-30T00:28:01.806Z,17.40
2022-07-30T00:30:28.426Z,15.52
2022-07-30T00:32:57.320Z,10.80
2022-07-30T00:35:23.985Z,15.32
2022-07-30T00:37:50.704Z,11.98
2022-07-30T00:40:17.299Z,13.50
2022-07-30T00:42:46.111Z,12.70
2022-07-30T00:45:14.313Z,18.45
2022-07-30T00:47:45.875Z,12.48
2022-07-30T00:50:13.839Z,12.15
2022-07-30T00:52:41.279Z,20.17
2022-07-30T00:55:14.085Z,12.50
2022-07-30T00:57:41.623Z,12.27
2022-07-30T01:00:13.413Z,13.73
2022-07-30T01:02:40.421Z,20.08
2022-07-30T01:05:07.713Z,14.65
2022-07-30T01:07:34.520Z,14.57
2022-07-30T01:10:01.414Z,17.25
2022-07-30T01:12:28.599Z,16.55
2022-07-30T01:14:59.656Z,19.33
2022-07-30T01:17:28.565Z,13.52
2022-07-30T01:19:59.445Z,12.00
2022-07-30T01:22:39.468Z,15.98
2022-07-30T01:25:11.947Z,19.75
2022-07-30T01:27:55.061Z,17.85
2022-07-30T01:30:25.448Z,14.48
2022-07-30T01:32:54.568Z,17.05
2022-07-30T01:35:23.558Z,16.13
2022-07-30T01:37:55.684Z,21.17
2022-07-30T01:40:25.296Z,22.55
2022-07-30T01:42:57.673Z,13.07
2022-07-30T01:45:28.763Z,18.33
2022-07-30T01:48:02.915Z,18.73
2022-07-30T01:50:30.806Z,18.48
2022-07-30T01:52:58.999Z,17.88
2022-07-30T01:55:30.834Z,16.35
2022-07-30T01:57:59.171Z,18.73
2022-07-30T02:00:30.946Z,17.05
2022-07-30T02:02:58.781Z,22.42
2022-07-30T02:05:28.111Z,21.92
2022-07-30T02:08:26.950Z,15.45
2022-07-30T02:11:08.871Z,17.75
2022-07-30T02:13:44.347Z,22.42
2022-07-30T02:16:18.394Z,15.85
2022-07-30T02:18:58.585Z,15.13
2022-07-30T02:21:34.042Z,13.32
2022-07-30T02:24:12.023Z,17.67
2022-07-30T02:26:42.998Z,16.08
2022-07-30T02:29:11.733Z,19.35
2022-07-30T02:31:41.080Z,17.83
2022-07-30T02:34:09.008Z,17.23
2022-07-30T02:36:37.179Z,19.30
2022-07-30T02:39:05.016Z,18.95
2022-07-30T02:41:32.966Z,17.40
2022-07-30T02:44:00.629Z,21.02
2022-07-30T02:46:28.779Z,16.80
2022-07-30T02:48:57.601Z,16.92
2022-07-30T02:51:26.025Z,18.92
2022-07-30T02:53:55.295Z,19.58
2022-07-30T02:56:22.954Z,24.58
2022-07-30T02:58:51.529Z,19.45
2022-07-30T03:01:21.803Z,22.10
2022-07-30T03:03:49.756Z,18.02
2022-07-30T03:06:18.239Z,20.38
2022-07-30T03:08:47.105Z,18.90
2022-07-30T03:11:17.500Z,23.75
2022-07-30T03:13:44.658Z,23.60
2022-07-30T03:16:13.725Z,22.77
2022-07-30T03:18:43.047Z,22.05
2022-07-30T03:21:11.918Z,22.27
2022-07-30T03:23:44.218Z,19.00
2022-07-30T03:26:12.730Z,26.60
2022-07-30T03:28:40.874Z,23.40
2022-07-30T03:31:08.622Z,24.30
2022-07-30T03:33:38.745Z,23.90
2022-07-30T03:36:07.341Z,20.08
2022-07-30T03:38:36.703Z,25.90
2022-07-30T03:41:05.146Z,23.05
2022-07-30T03:43:33.423Z,25.08
2022-07-30T03:46:03.552Z,24.20
2022-07-30T03:48:31.475Z,23.00
2022-07-30T03:50:59.130Z,22.38
2022-07-30T03:53:27.647Z,21.17
2022-07-30T03:55:54.947Z,23.27
2022-07-30T03:58:22.421Z,23.38
2022-07-30T04:00:50.315Z,20.77
2022-07-30T04:03:32.463Z,22.95
2022-07-30T04:05:59.402Z,24.42
2022-07-30T04:08:27.307Z,24.13
2022-07-30T04:10:54.050Z,27.10
2022-07-30T04:13:20.693Z,19.05
2022-07-30T04:16:38.795Z,18.77
2022-07-30T04:19:01.941Z,25.67
2022-07-30T04:21:30.021Z,22.75
2022-07-30T04:24:05.002Z,18.73
2022-07-30T04:26:33.929Z,18.00
2022-07-30T04:29:02.158Z,20.77
2022-07-30T04:31:29.790Z,22.27
2022-07-30T04:34:02.801Z,24.85
2022-07-30T04:36:35.735Z,19.75
2022-07-30T04:39:03.443Z,17.30
2022-07-30T04:41:48.665Z,20.02
2022-07-30T04:44:17.782Z,20.70
2022-07-30T04:46:44.503Z,16.05
2022-07-30T04:49:13.036Z,19.10
2022-07-30T04:51:41.049Z,20.80
2022-07-30T04:54:15.075Z,16.40
2022-07-30T04:56:53.197Z,20.23
2022-07-30T04:59:23.816Z,16.77
2022-07-30T05:01:52.358Z,13.70
2022-07-30T05:04:20.491Z,18.85
2022-07-30T05:06:47.797Z,16.52
2022-07-30T05:09:16.266Z,14.88
2022-07-30T05:11:49.531Z,15.32
2022-07-30T05:14:16.477Z,12.55
2022-07-30T05:16:43.090Z,12.80
2022-07-30T05:19:09.693Z,15.23
2022-07-30T05:21:36.237Z,11.23
2022-07-30T05:24:05.234Z,13.48
2022-07-30T05:26:31.818Z,11.32
2022-07-30T05:29:00.761Z,12.32
2022-07-30T05:31:31.124Z,13.60
2022-07-30T05:34:02.950Z,13.93
2022-07-30T05:36:32.282Z,11.15
2022-07-30T05:39:01.340Z,9.38
2022-07-30T05:41:32.885Z,11.80
2022-07-30T05:44:00.734Z,11.95
2022-07-30T05:46:27.953Z,13.35
2022-07-30T05:48:54.651Z,10.20
2022-07-30T05:51:22.232Z,8.57
2022-07-30T05:53:51.825Z,9.57
2022-07-30T05:56:20.950Z,13.05
2022-07-30T05:58:50.007Z,8.48
2022-07-30T06:01:16.897Z,10.75
2022-07-30T06:03:43.452Z,9.40
2022-07-30T06:06:10.049Z,9.00
2022-07-30T06:08:39.415Z,7.88
2022-07-30T06:11:08.841Z,10.32
2022-07-30T06:13:35.986Z,7.10
2022-07-30T06:16:02.662Z,9.95
2022-07-30T06:18:29.238Z,6.03
2022-07-30T06:20:58.177Z,7.28
2022-07-30T06:23:24.797Z,7.45
2022-07-30T06:25:53.570Z,9.73
2022-07-30T06:28:37.094Z,6.88
2022-07-30T06:31:05.733Z,6.68
2022-07-30T06:33:32.702Z,8.80
2022-07-30T06:35:59.500Z,8.70
2022-07-30T06:38:26.101Z,6.10
2022-07-30T06:40:58.115Z,5.50
2022-07-30T06:43:28.031Z,7.13
2022-07-30T06:45:54.773Z,7.18
2022-07-30T06:48:23.592Z,10.48
2022-07-30T06:50:50.194Z,8.90
2022-07-30T06:53:19.730Z,7.97
2022-07-30T06:55:46.307Z,7.38
2022-07-30T06:58:12.862Z,10.05
2022-07-30T07:00:39.417Z,5.65
2022-07-30T07:03:09.966Z,7.15
2022-07-30T07:05:38.866Z,6.43
2022-07-30T07:08:05.659Z,6.32
2022-07-30T07:10:32.518Z,4.40
2022-07-30T07:13:04.008Z,8.20
2022-07-30T07:15:36.801Z,5.65
2022-07-30T07:18:06.740Z,7.00
2022-07-30T07:20:34.766Z,5.72
2022-07-30T07:23:06.570Z,6.05
2022-07-30T07:25:36.418Z,6.25
2022-07-30T07:28:12.870Z,6.05
2022-07-30T07:30:44.343Z,7.30
2022-07-30T07:33:12.234Z,5.43
2022-07-30T07:35:48.647Z,5.55
2022-07-30T07:38:17.016Z,3.60
2022-07-30T07:40:43.634Z,4.90
2022-07-30T07:43:10.195Z,5.68
2022-07-30T07:45:39.527Z,6.13
2022-07-30T07:48:06.358Z,7.70
2022-07-30T07:50:35.127Z,10.20
2022-07-30T07:53:01.659Z,6.53
2022-07-30T07:55:28.244Z,5.75
2022-07-30T07:57:58.361Z,9.23
2022-07-30T08:00:25.256Z,6.18
2022-07-30T08:02:51.894Z,5.63
2022-07-30T08:05:18.682Z,6.55
2022-07-30T08:07:47.683Z,6.13
2022-07-30T08:10:17.283Z,5.15
2022-07-30T08:12:43.837Z,8.50
2022-07-30T08:15:10.990Z,4.88
2022-07-30T08:17:42.125Z,13.05
2022-07-30T08:20:10.033Z,14.07
2022-07-30T08:22:36.852Z,4.10
2022-07-30T08:25:04.640Z,5.47
2022-07-30T08:27:31.575Z,6.22
2022-07-30T08:29:58.228Z,4.45
2022-07-30T08:32:25.403Z,8.15
2022-07-30T08:34:59.325Z,6.40
2022-07-30T08:37:29.154Z,4.25
2022-07-30T08:39:55.982Z,4.43
2022-07-30T08:42:23.586Z,5.00
2022-07-30T08:44:53.773Z,7.13
2022-07-30T08:47:26.283Z,4.95
2022-07-30T08:49:53.504Z,4.53
2022-07-30T08:52:20.737Z,6.22
2022-07-30T08:54:47.607Z,4.60
2022-07-30T08:57:14.432Z,5.85
2022-07-30T09:00:00.799Z,3.92
2022-07-30T09:02:33.843Z,5.50
2022-07-30T09:05:00.490Z,5.50
2022-07-30T09:07:29.454Z,6.75
2022-07-30T09:09:56.732Z,3.28
2022-07-30T09:12:33.288Z,5.05
2022-07-30T09:15:06.044Z,4.88
2022-07-30T09:17:54.507Z,4.10
2022-07-30T09:20:23.414Z,3.40
2022-07-30T09:22:53.077Z,4.65
2022-07-30T09:25:45.925Z,3.42
2022-07-30T09:28:16.185Z,9.07
2022-07-30T09:30:49.374Z,7.03
2022-07-30T09:33:32.151Z,3.58
2022-07-30T09:35:59.390Z,2.53
2022-07-30T09:38:26.400Z,5.55
2022-07-30T09:40:58.099Z,4.82
2022-07-30T09:43:27.808Z,7.88
2022-07-30T09:45:58.860Z,4.68
2022-07-30T09:48:27.314Z,3.05
2022-07-30T09:50:55.333Z,5.05
2022-07-30T09:53:24.597Z,4.10
2022-07-30T09:55:51.265Z,4.00
2022-07-30T09:58:27.134Z,3.95
2022-07-30T10:00:59.598Z,3.85
2022-07-30T10:03:33.276Z,5.03
2022-07-30T10:06:03.852Z,3.50
2022-07-30T10:08:41.587Z,2.78
2022-07-30T10:11:15.686Z,3.38
2022-07-30T10:13:45.684Z,3.92
2022-07-30T10:16:13.219Z,2.03
2022-07-30T10:18:42.523Z,2.15
2022-07-30T10:21:11.189Z,3.60
2022-07-30T10:23:44.195Z,2.63
2022-07-30T10:26:12.480Z,3.15
2022-07-30T10:28:48.037Z,4.00
2022-07-30T10:31:49.299Z,6.97
2022-07-30T10:34:02.713Z,5.85
2022-07-30T10:36:30.604Z,3.53
2022-07-30T10:38:57.550Z,3.97
2022-07-30T10:41:53.933Z,3.25
2022-07-30T10:44:44.350Z,4.07
2022-07-30T10:47:14.187Z,4.95
2022-07-30T10:49:42.998Z,7.15
2022-07-30T10:52:10.886Z,15.75
2022-07-30T10:54:40.317Z,2.38
2022-07-30T10:57:08.577Z,3.88
2022-07-30T10:59:50.361Z,2.45
2022-07-30T11:02:19.712Z,4.80
2022-07-30T11:04:46.729Z,5.35
2022-07-30T11:07:33.599Z,18.52
2022-07-30T11:10:05.163Z,10.25
2022-07-30T11:12:45.042Z,5.60
2022-07-30T11:15:18.607Z,6.45
2022-07-30T11:18:12.368Z,9.80
2022-07-30T11:20:41.016Z,5.43
2022-07-30T11:23:20.785Z,22.70
2022-07-30T11:25:51.124Z,8.07
2022-07-30T11:28:39.285Z,15.90
2022-07-30T11:31:36.819Z,2.72
2022-07-30T11:34:18.348Z,2.88
2022-07-30T11:37:19.286Z,2.55
2022-07-30T11:39:55.237Z,6.22
2022-07-30T11:42:32.650Z,3.10
2022-07-30T11:45:23.239Z,6.38
2022-07-30T11:47:51.658Z,6.22
2022-07-30T11:50:23.852Z,4.43
2022-07-30T11:53:06.932Z,7.78
2022-07-30T11:55:40.336Z,3.03
2022-07-30T11:58:10.479Z,5.13
2022-07-30T12:00:38.531Z,5.05
2022-07-30T12:03:15.566Z,6.22
2022-07-30T12:05:43.526Z,2.53
2022-07-30T12:08:31.555Z,7.68
2022-07-30T12:11:00.343Z,6.90
2022-07-30T12:13:43.470Z,6.38
2022-07-30T12:16:16.057Z,4.43
2022-07-30T12:18:44.074Z,2.70
2022-07-30T12:21:17.604Z,6.32
2022-07-30T12:24:07.577Z,3.13
2022-07-30T12:26:35.257Z,5.95
2022-07-30T12:29:05.235Z,5.53
2022-07-30T12:31:33.800Z,6.90
2022-07-30T12:34:00.994Z,5.32
2022-07-30T12:36:32.800Z,4.65
2022-07-30T12:39:00.993Z,5.63
2022-07-30T12:41:45.143Z,8.65
2022-07-30T12:44:45.042Z,10.13
2022-07-30T12:47:31.115Z,4.20
2022-07-30T12:50:00.686Z,3.17
2022-07-30T12:52:35.829Z,5.88
2022-07-30T12:55:10.791Z,4.28
2022-07-30T12:57:57.123Z,7.20
2022-07-30T13:00:26.922Z,5.85
2022-07-30T13:02:53.855Z,6.22
2022-07-30T13:05:20.636Z,8.10
2022-07-30T13:07:58.721Z,6.97
2022-07-30T13:10:30.461Z,4.22
2022-07-30T13:12:58.456Z,4.60
2022-07-30T13:15:25.378Z,7.18
2022-07-30T13:17:52.067Z,4.40
2022-07-30T13:20:18.956Z,7.30
2022-07-30T13:22:45.754Z,9.30
2022-07-30T13:25:12.947Z,5.72
2022-07-30T13:27:39.765Z,6.88
2022-07-30T13:30:09.889Z,6.38
2022-07-30T13:32:36.628Z,5.10
2022-07-30T13:35:03.858Z,3.28
2022-07-30T13:37:38.141Z,8.00
2022-07-30T13:40:06.097Z,6.07
2022-07-30T13:42:32.796Z,3.90
2022-07-30T13:44:59.436Z,7.20
2022-07-30T13:47:28.150Z,6.25
2022-07-30T13:49:54.747Z,2.13
2022-07-30T13:52:21.324Z,3.40
2022-07-30T13:54:48.260Z,6.38
2022-07-30T13:57:14.841Z,6.20
2022-07-30T13:59:41.498Z,4.38
2022-07-30T14:02:08.931Z,3.65
2022-07-30T14:04:35.520Z,5.05
2022-07-30T14:07:02.540Z,5.63
2022-07-30T14:09:29.267Z,4.25
2022-07-30T14:11:56.073Z,4.07
2022-07-30T14:14:22.632Z,9.77
2022-07-30T14:16:58.977Z,8.13
2022-07-30T14:19:25.674Z,9.10
2022-07-30T14:21:53.857Z,4.55
2022-07-30T14:24:23.676Z,7.53
2022-07-30T14:26:55.848Z,6.57
2022-07-30T14:29:24.735Z,5.57
2022-07-30T14:31:51.604Z,5.32
2022-07-30T14:34:19.196Z,4.40
2022-07-30T14:36:45.765Z,6.15
2022-07-30T14:39:14.874Z,5.35
2022-07-30T14:41:43.017Z,8.18
2022-07-30T14:44:12.211Z,7.63
2022-07-30T14:46:39.656Z,8.50
2022-07-30T14:49:19.554Z,11.88
2022-07-30T14:51:46.172Z,4.90
2022-07-30T14:54:12.807Z,6.22
2022-07-30T14:56:39.671Z,6.53
2022-07-30T14:59:09.244Z,7.50
2022-07-30T15:01:35.946Z,6.28
2022-07-30T15:04:09.508Z,6.28
2022-07-30T15:06:37.498Z,4.22
2022-07-30T15:09:04.396Z,7.55
2022-07-30T15:11:40.236Z,5.07
2022-07-30T15:14:17.765Z,8.20
2022-07-30T15:16:47.990Z,4.97
2022-07-30T15:19:17.046Z,3.75
2022-07-30T15:21:44.817Z,9.73
2022-07-30T15:24:13.606Z,5.15
2022-07-30T15:26:40.176Z,4.82
2022-07-30T15:29:11.601Z,8.77
2022-07-30T15:31:39.862Z,8.57
2022-07-30T15:34:10.764Z,6.15
2022-07-30T15:36:38.991Z,5.18
2022-07-30T15:39:06.590Z,6.22
2022-07-30T15:41:33.542Z,7.95
2022-07-30T15:44:00.138Z,5.13
2022-07-30T15:46:31.267Z,6.75
2022-07-30T15:48:57.936Z,4.38
2022-07-30T15:51:24.596Z,8.90
2022-07-30T15:53:51.149Z,5.38
2022-07-30T15:56:18.749Z,8.38
2022-07-30T15:58:45.306Z,4.70
2022-07-30T16:01:12.161Z,7.22
2022-07-30T16:03:41.072Z,5.90
2022-07-30T16:06:07.672Z,8.13
2022-07-30T16:08:34.356Z,4.05
2022-07-30T16:11:04.532Z,6.53
2022-07-30T16:13:34.479Z,8.85
2022-07-30T16:16:01.337Z,4.53
2022-07-30T16:18:27.905Z,9.20
2022-07-30T16:20:58.547Z,3.80
2022-07-30T16:23:25.371Z,8.85
2022-07-30T16:25:51.943Z,5.93
2022-07-30T16:28:21.113Z,5.15
2022-07-30T16:30:51.700Z,8.43
2022-07-30T16:33:19.507Z,6.32
2022-07-30T16:35:49.038Z,6.30
2022-07-30T16:38:17.963Z,7.47
2022-07-30T16:40:49.515Z,6.78
2022-07-30T16:43:19.536Z,5.07
2022-07-30T16:45:46.847Z,8.88
2022-07-30T16:48:13.852Z,6.00
2022-07-30T16:50:41.423Z,4.65
2022-07-30T16:53:13.841Z,8.63
2022-07-30T16:55:41.642Z,7.32
2022-07-30T16:58:10.709Z,2.90
2022-07-30T17:00:38.011Z,4.93
2022-07-30T17:03:04.679Z,5.38
2022-07-30T17:05:31.548Z,4.90
2022-07-30T17:07:58.286Z,4.82
2022-07-30T17:10:26.359Z,7.75
2022-07-30T17:12:56.963Z,5.32
2022-07-30T17:15:32.374Z,5.55
2022-07-30T17:18:00.764Z,13.95
2022-07-30T17:20:27.913Z,7.22
2022-07-30T17:22:56.255Z,24.58
2022-07-30T17:25:27.721Z,15.38
2022-07-30T17:27:58.851Z,14.13
2022-07-30T17:30:27.306Z,23.02
2022-07-30T17:32:56.797Z,27.27
2022-07-30T17:35:24.738Z,33.08
2022-07-30T17:37:51.783Z,42.40
2022-07-30T17:40:27.824Z,52.85
2022-07-30T17:43:03.788Z,13.88
2022-07-30T17:45:34.816Z,11.85
2022-07-30T17:48:02.214Z,5.05
2022-07-30T17:50:32.415Z,9.27
2022-07-30T17:52:59.635Z,5.50
2022-07-30T17:55:28.052Z,10.52
2022-07-30T17:57:54.757Z,7.50
2022-07-30T18:00:22.825Z,6.45
2022-07-30T18:02:49.332Z,4.63
2022-07-30T18:05:16.090Z,5.82
2022-07-30T18:07:43.950Z,4.90
2022-07-30T18:10:11.237Z,5.38
2022-07-30T18:12:38.201Z,3.90
2022-07-30T18:15:08.333Z,9.85
2022-07-30T18:17:34.945Z,6.88
2022-07-30T18:20:01.712Z,6.03
2022-07-30T18:22:29.821Z,5.75
2022-07-30T18:25:00.901Z,4.07
2022-07-30T18:27:27.875Z,8.13
2022-07-30T18:29:56.840Z,5.00
2022-07-30T18:32:24.687Z,9.15
2022-07-30T18:34:53.688Z,4.88
2022-07-30T18:37:20.316Z,5.63
2022-07-30T18:39:46.857Z,6.60
2022-07-30T18:42:13.444Z,4.65
2022-07-30T18:44:39.972Z,9.68
2022-07-30T18:47:07.029Z,5.50
2022-07-30T18:49:37.084Z,5.15
2022-07-30T18:52:05.396Z,3.50
2022-07-30T18:54:32.301Z,6.78
2022-07-30T18:56:58.868Z,5.57
2022-07-30T18:59:25.457Z,6.47
2022-07-30T19:01:52.259Z,4.05
2022-07-30T19:04:18.954Z,8.82
2022-07-30T19:06:45.749Z,4.70
2022-07-30T19:09:16.795Z,7.35
2022-07-30T19:11:45.285Z,6.90
2022-07-30T19:14:13.262Z,6.25
2022-07-30T19:16:41.785Z,3.67
2022-07-30T19:19:09.042Z,6.55
2022-07-30T19:21:35.907Z,9.23
2022-07-30T19:24:02.613Z,11.95
2022-07-30T19:26:31.600Z,7.88
2022-07-30T19:28:58.477Z,13.25
2022-07-30T19:31:25.907Z,7.32
2022-07-30T19:33:52.717Z,7.57
2022-07-30T19:36:21.314Z,7.20
2022-07-30T19:38:54.119Z,9.57
2022-07-30T19:41:20.683Z,9.13
2022-07-30T19:43:58.162Z,8.85
2022-07-30T19:46:25.649Z,9.82
2022-07-30T19:48:54.340Z,7.95
2022-07-30T19:51:25.406Z,7.88
2022-07-30T19:54:11.645Z,8.82
2022-07-30T19:56:43.017Z,8.25
2022-07-30T19:59:15.128Z,9.07
2022-07-30T20:01:43.018Z,10.98
2022-07-30T20:04:11.330Z,12.77
2022-07-30T20:06:39.914Z,12.20
2022-07-30T20:09:16.265Z,9.13
2022-07-30T20:11:46.133Z,8.65
2022-07-30T20:14:15.558Z,6.90
2022-07-30T20:16:43.044Z,14.02
2022-07-30T20:19:16.635Z,10.65
2022-07-30T20:21:56.889Z,18.88
2022-07-30T20:24:24.607Z,10.00
2022-07-30T20:26:52.241Z,7.75
2022-07-30T20:29:20.611Z,8.15
2022-07-30T20:31:49.801Z,9.95
2022-07-30T20:34:17.932Z,6.55
2022-07-30T20:36:44.827Z,6.10
2022-07-30T20:42:12.021Z,7.28
2022-07-30T20:44:40.289Z,9.25
2022-07-30T20:47:12.943Z,10.35
2022-07-30T20:49:40.727Z,9.15
2022-07-30T20:52:09.638Z,9.70
2022-07-30T20:54:37.299Z,9.90
2022-07-30T20:57:15.767Z,8.88
2022-07-30T20:59:44.820Z,10.20
2022-07-30T21:02:15.309Z,9.70
2022-07-30T21:04:42.057Z,7.85
2022-07-30T21:07:13.333Z,10.05
2022-07-30T21:09:51.993Z,8.18
2022-07-30T21:12:19.359Z,7.72
2022-07-30T21:15:01.807Z,9.15
2022-07-30T21:17:28.482Z,5.90
2022-07-30T21:19:55.117Z,8.90
2022-07-30T21:22:22.219Z,9.30
2022-07-30T21:24:50.618Z,7.20
2022-07-30T21:27:17.208Z,8.55
2022-07-30T21:29:45.724Z,7.35
2022-07-30T21:32:12.576Z,9.63
2022-07-30T21:34:42.368Z,6.47
2022-07-30T21:37:09.632Z,9.48
2022-07-30T21:39:40.177Z,13.13
2022-07-30T21:42:10.563Z,12.40
2022-07-30T21:44:40.357Z,8.57
2022-07-30T21:47:10.044Z,6.28
2022-07-30T21:49:37.728Z,7.13
2022-07-30T21:52:04.996Z,10.95
2022-07-30T21:54:45.184Z,8.10
2022-07-30T21:57:15.366Z,10.57
2022-07-30T21:59:51.160Z,9.73
2022-07-30T22:02:18.921Z,14.73
2022-07-30T22:04:50.603Z,7.25
2022-07-30T22:07:21.886Z,11.93
2022-07-30T22:09:48.958Z,8.98
2022-07-30T22:12:18.086Z,8.68
2022-07-30T22:14:45.305Z,8.20
2022-07-30T22:17:23.623Z,6.57
2022-07-30T22:20:03.074Z,9.45
2022-07-30T22:22:36.196Z,6.85
2022-07-30T22:25:06.915Z,7.10
2022-07-30T22:27:56.680Z,8.10
2022-07-30T22:30:26.680Z,6.00
2022-07-30T22:32:54.492Z,12.27
2022-07-30T22:35:33.743Z,7.97
2022-07-30T22:38:01.877Z,9.70
2022-07-30T22:40:28.445Z,8.23
2022-07-30T22:42:54.981Z,8.55
2022-07-30T22:45:45.775Z,9.95
2022-07-30T22:48:17.670Z,10.88
2022-07-30T22:50:48.830Z,8.50
2022-07-30T22:54:10.479Z,6.00
2022-07-30T22:56:05.944Z,7.40
2022-07-30T22:58:40.840Z,8.90
2022-07-30T23:01:09.341Z,8.05
2022-07-30T23:03:37.942Z,7.22
2022-07-30T23:06:06.782Z,9.20
2022-07-30T23:08:43.704Z,11.15
2022-07-30T23:11:10.347Z,8.85
2022-07-30T23:12:19.272Z,9.10
2022-07-30T23:13:38.649Z,7.60
2022-07-30T23:16:07.564Z,11.80
2022-07-30T23:18:37.361Z,7.97
2022-07-30T23:21:04.680Z,8.98
2022-07-30T23:23:36.792Z,11.27
2022-07-30T23:26:06.470Z,12.02
2022-07-30T23:28:33.042Z,12.70
2022-07-30T23:31:03.185Z,6.97
2022-07-30T23:33:31.271Z,8.15
2022-07-30T23:36:00.227Z,9.15
2022-07-30T23:38:27.390Z,7.15
2022-07-30T23:40:54.353Z,11.07
2022-07-30T23:43:20.924Z,6.45
2022-07-30T23:45:47.468Z,8.40
2022-07-30T23:48:15.094Z,9.73
2022-07-30T23:50:46.694Z,9.13
2022-07-30T23:53:13.439Z,8.07
2022-07-30T23:55:48.338Z,10.75
2022-07-30T23:58:18.395Z,6.57
